sensor_id;sensor_type;location;lat;lon;timestamp;P1;durP1;ratioP1;P2;durP2;ratioP2
38557;SDS011;24333;42.626;23.308;2023-07-13T00:05:06;5.20;;;2.33;;
38557;SDS011;24333;42.626;23.308;2023-07-13T00:07:31;5.40;;;2.10;;
38557;SDS011;24333;42.626;23.308;2023-07-13T00:09:57;4.60;;;2.15;;
38557;SDS011;24333;42.626;23.308;2023-07-13T00:14:52;4.95;;;2.55;;
38557;SDS011;24333;42.626;23.308;2023-07-13T00:17:18;3.15;;;1.95;;
38557;SDS011;24333;42.626;23.308;2023-07-13T00:19:43;3.00;;;1.90;;
38557;SDS011;24333;42.626;23.308;2023-07-13T00:22:09;6.38;;;2.35;;
38557;SDS011;24333;42.626;23.308;2023-07-13T00:24:34;6.53;;;2.47;;
38557;SDS011;24333;42.626;23.308;2023-07-13T00:27:01;4.35;;;2.17;;
38557;SDS011;24333;42.626;23.308;2023-07-13T00:29:26;4.05;;;2.20;;
38557;SDS011;24333;42.626;23.308;2023-07-13T00:31:52;4.18;;;2.15;;
38557;SDS011;24333;42.626;23.308;2023-07-13T00:34:17;5.07;;;2.17;;
38557;SDS011;24333;42.626;23.308;2023-07-13T00:36:42;6.45;;;2.65;;
38557;SDS011;24333;42.626;23.308;2023-07-13T00:39:08;7.50;;;2.88;;
38557;SDS011;24333;42.626;23.308;2023-07-13T00:41:33;7.28;;;2.70;;
38557;SDS011;24333;42.626;23.308;2023-07-13T00:43:59;6.22;;;2.45;;
38557;SDS011;24333;42.626;23.308;2023-07-13T00:51:30;5.82;;;2.40;;
38557;SDS011;24333;42.626;23.308;2023-07-13T00:54:05;6.03;;;2.50;;
38557;SDS011;24333;42.626;23.308;2023-07-13T00:56:34;6.55;;;2.70;;
38557;SDS011;24333;42.626;23.308;2023-07-13T00:59:02;7.70;;;2.92;;
38557;SDS011;24333;42.626;23.308;2023-07-13T01:01:28;5.72;;;2.70;;
38557;SDS011;24333;42.626;23.308;2023-07-13T01:03:54;6.68;;;2.58;;
38557;SDS011;24333;42.626;23.308;2023-07-13T01:06:19;4.85;;;2.50;;
38557;SDS011;24333;42.626;23.308;2023-07-13T01:08:45;6.57;;;2.72;;
38557;SDS011;24333;42.626;23.308;2023-07-13T01:11:10;6.80;;;2.53;;
38557;SDS011;24333;42.626;23.308;2023-07-13T01:13:36;4.57;;;2.70;;
38557;SDS011;24333;42.626;23.308;2023-07-13T01:16:03;5.20;;;2.40;;
38557;SDS011;24333;42.626;23.308;2023-07-13T01:18:37;4.97;;;2.50;;
38557;SDS011;24333;42.626;23.308;2023-07-13T01:21:03;5.47;;;2.53;;
38557;SDS011;24333;42.626;23.308;2023-07-13T01:23:29;4.10;;;2.20;;
38557;SDS011;24333;42.626;23.308;2023-07-13T01:25:56;5.05;;;2.67;;
38557;SDS011;24333;42.626;23.308;2023-07-13T01:28:23;5.88;;;2.85;;
38557;SDS011;24333;42.626;23.308;2023-07-13T01:30:51;5.25;;;2.30;;
38557;SDS011;24333;42.626;23.308;2023-07-13T01:33:17;11.55;;;3.20;;
38557;SDS011;24333;42.626;23.308;2023-07-13T01:35:44;8.95;;;2.83;;
38557;SDS011;24333;42.626;23.308;2023-07-13T01:40:53;11.40;;;3.58;;
38557;SDS011;24333;42.626;23.308;2023-07-13T01:43:19;16.23;;;3.17;;
38557;SDS011;24333;42.626;23.308;2023-07-13T01:45:44;8.55;;;2.75;;
38557;SDS011;24333;42.626;23.308;2023-07-13T01:48:10;6.13;;;2.83;;
38557;SDS011;24333;42.626;23.308;2023-07-13T01:50:36;3.42;;;2.10;;
38557;SDS011;24333;42.626;23.308;2023-07-13T01:53:02;4.50;;;2.60;;
38557;SDS011;24333;42.626;23.308;2023-07-13T01:55:28;4.07;;;2.33;;
38557;SDS011;24333;42.626;23.308;2023-07-13T01:57:54;5.22;;;2.22;;
38557;SDS011;24333;42.626;23.308;2023-07-13T02:00:20;4.70;;;2.65;;
38557;SDS011;24333;42.626;23.308;2023-07-13T02:02:46;5.22;;;2.35;;
38557;SDS011;24333;42.626;23.308;2023-07-13T02:05:12;4.07;;;2.53;;
38557;SDS011;24333;42.626;23.308;2023-07-13T02:10:13;3.97;;;2.53;;
38557;SDS011;24333;42.626;23.308;2023-07-13T02:12:38;4.60;;;2.78;;
38557;SDS011;24333;42.626;23.308;2023-07-13T02:15:07;5.97;;;2.78;;
38557;SDS011;24333;42.626;23.308;2023-07-13T02:17:34;6.20;;;2.70;;
38557;SDS011;24333;42.626;23.308;2023-07-13T02:19:59;7.72;;;2.60;;
38557;SDS011;24333;42.626;23.308;2023-07-13T02:22:25;9.35;;;3.30;;
38557;SDS011;24333;42.626;23.308;2023-07-13T02:24:50;6.57;;;2.70;;
38557;SDS011;24333;42.626;23.308;2023-07-13T02:27:16;5.72;;;2.97;;
38557;SDS011;24333;42.626;23.308;2023-07-13T02:29:41;11.73;;;3.15;;
38557;SDS011;24333;42.626;23.308;2023-07-13T02:32:07;6.50;;;3.00;;
38557;SDS011;24333;42.626;23.308;2023-07-13T02:34:33;5.03;;;2.60;;
38557;SDS011;24333;42.626;23.308;2023-07-13T02:36:58;7.57;;;3.28;;
38557;SDS011;24333;42.626;23.308;2023-07-13T02:39:24;4.53;;;2.40;;
38557;SDS011;24333;42.626;23.308;2023-07-13T02:41:49;6.00;;;3.10;;
38557;SDS011;24333;42.626;23.308;2023-07-13T02:44:15;6.43;;;2.40;;
38557;SDS011;24333;42.626;23.308;2023-07-13T02:46:40;4.20;;;2.63;;
38557;SDS011;24333;42.626;23.308;2023-07-13T02:49:06;7.47;;;2.95;;
38557;SDS011;24333;42.626;23.308;2023-07-13T02:51:31;5.18;;;3.00;;
38557;SDS011;24333;42.626;23.308;2023-07-13T02:53:59;7.72;;;2.90;;
38557;SDS011;24333;42.626;23.308;2023-07-13T02:56:26;7.60;;;2.85;;
38557;SDS011;24333;42.626;23.308;2023-07-13T02:58:52;6.57;;;3.05;;
38557;SDS011;24333;42.626;23.308;2023-07-13T03:01:19;6.53;;;3.10;;
38557;SDS011;24333;42.626;23.308;2023-07-13T03:03:45;8.43;;;3.00;;
38557;SDS011;24333;42.626;23.308;2023-07-13T03:06:11;8.10;;;3.30;;
38557;SDS011;24333;42.626;23.308;2023-07-13T03:08:37;4.28;;;2.53;;
38557;SDS011;24333;42.626;23.308;2023-07-13T03:11:07;6.85;;;3.28;;
38557;SDS011;24333;42.626;23.308;2023-07-13T03:13:36;4.43;;;2.88;;
38557;SDS011;24333;42.626;23.308;2023-07-13T03:16:02;6.45;;;3.08;;
38557;SDS011;24333;42.626;23.308;2023-07-13T03:18:28;6.82;;;2.95;;
38557;SDS011;24333;42.626;23.308;2023-07-13T03:20:53;6.20;;;2.90;;
38557;SDS011;24333;42.626;23.308;2023-07-13T03:23:20;8.20;;;3.50;;
38557;SDS011;24333;42.626;23.308;2023-07-13T03:25:46;5.88;;;3.15;;
38557;SDS011;24333;42.626;23.308;2023-07-13T03:28:13;6.85;;;3.20;;
38557;SDS011;24333;42.626;23.308;2023-07-13T03:30:39;7.45;;;2.97;;
38557;SDS011;24333;42.626;23.308;2023-07-13T03:33:04;9.48;;;3.25;;
38557;SDS011;24333;42.626;23.308;2023-07-13T03:35:30;5.15;;;3.22;;
38557;SDS011;24333;42.626;23.308;2023-07-13T03:37:57;4.85;;;2.65;;
38557;SDS011;24333;42.626;23.308;2023-07-13T03:40:24;6.35;;;2.95;;
38557;SDS011;24333;42.626;23.308;2023-07-13T03:42:51;5.43;;;3.00;;
38557;SDS011;24333;42.626;23.308;2023-07-13T03:45:16;6.90;;;2.90;;
38557;SDS011;24333;42.626;23.308;2023-07-13T03:47:42;5.50;;;2.70;;
38557;SDS011;24333;42.626;23.308;2023-07-13T03:50:07;7.15;;;3.35;;
38557;SDS011;24333;42.626;23.308;2023-07-13T03:52:33;9.43;;;4.03;;
38557;SDS011;24333;42.626;23.308;2023-07-13T03:54:58;7.22;;;3.80;;
38557;SDS011;24333;42.626;23.308;2023-07-13T03:57:23;16.13;;;4.70;;
38557;SDS011;24333;42.626;23.308;2023-07-13T03:59:49;8.90;;;4.78;;
38557;SDS011;24333;42.626;23.308;2023-07-13T04:02:14;9.50;;;4.25;;
38557;SDS011;24333;42.626;23.308;2023-07-13T04:04:39;11.23;;;4.32;;
38557;SDS011;24333;42.626;23.308;2023-07-13T04:07:05;6.70;;;3.42;;
38557;SDS011;24333;42.626;23.308;2023-07-13T04:09:33;10.90;;;4.15;;
38557;SDS011;24333;42.626;23.308;2023-07-13T04:11:58;7.95;;;3.35;;
38557;SDS011;24333;42.626;23.308;2023-07-13T04:14:24;8.38;;;3.97;;
38557;SDS011;24333;42.626;23.308;2023-07-13T04:16:49;6.85;;;3.30;;
38557;SDS011;24333;42.626;23.308;2023-07-13T04:19:14;8.27;;;3.80;;
38557;SDS011;24333;42.626;23.308;2023-07-13T04:21:40;7.13;;;2.90;;
38557;SDS011;24333;42.626;23.308;2023-07-13T04:24:05;9.10;;;4.00;;
38557;SDS011;24333;42.626;23.308;2023-07-13T04:26:31;7.45;;;3.47;;
38557;SDS011;24333;42.626;23.308;2023-07-13T04:28:57;8.00;;;4.50;;
38557;SDS011;24333;42.626;23.308;2023-07-13T04:31:22;10.82;;;3.67;;
38557;SDS011;24333;42.626;23.308;2023-07-13T04:33:48;5.60;;;3.10;;
38557;SDS011;24333;42.626;23.308;2023-07-13T04:36:15;5.65;;;3.50;;
38557;SDS011;24333;42.626;23.308;2023-07-13T04:41:23;9.93;;;3.80;;
38557;SDS011;24333;42.626;23.308;2023-07-13T04:43:48;16.08;;;4.47;;
38557;SDS011;24333;42.626;23.308;2023-07-13T04:46:16;8.13;;;4.18;;
38557;SDS011;24333;42.626;23.308;2023-07-13T04:48:43;9.30;;;4.47;;
38557;SDS011;24333;42.626;23.308;2023-07-13T04:51:09;13.50;;;4.43;;
38557;SDS011;24333;42.626;23.308;2023-07-13T04:53:34;14.70;;;4.72;;
38557;SDS011;24333;42.626;23.308;2023-07-13T04:56:00;9.82;;;4.35;;
38557;SDS011;24333;42.626;23.308;2023-07-13T04:58:26;11.50;;;4.40;;
38557;SDS011;24333;42.626;23.308;2023-07-13T05:00:52;17.83;;;4.38;;
38557;SDS011;24333;42.626;23.308;2023-07-13T05:03:18;9.00;;;4.00;;
38557;SDS011;24333;42.626;23.308;2023-07-13T05:05:53;15.23;;;5.00;;
38557;SDS011;24333;42.626;23.308;2023-07-13T05:10:55;15.07;;;4.53;;
38557;SDS011;24333;42.626;23.308;2023-07-13T05:13:20;11.05;;;3.75;;
38557;SDS011;24333;42.626;23.308;2023-07-13T05:15:47;9.60;;;4.25;;
38557;SDS011;24333;42.626;23.308;2023-07-13T05:18:21;8.60;;;4.33;;
38557;SDS011;24333;42.626;23.308;2023-07-13T05:28:32;18.48;;;6.60;;
38557;SDS011;24333;42.626;23.308;2023-07-13T05:30:58;11.85;;;6.00;;
38557;SDS011;24333;42.626;23.308;2023-07-13T05:33:23;13.57;;;5.25;;
38557;SDS011;24333;42.626;23.308;2023-07-13T05:35:49;14.73;;;6.45;;
38557;SDS011;24333;42.626;23.308;2023-07-13T05:40:50;13.43;;;4.97;;
38557;SDS011;24333;42.626;23.308;2023-07-13T05:43:20;10.77;;;5.57;;
38557;SDS011;24333;42.626;23.308;2023-07-13T05:45:46;17.10;;;5.82;;
38557;SDS011;24333;42.626;23.308;2023-07-13T05:48:12;10.68;;;5.63;;
38557;SDS011;24333;42.626;23.308;2023-07-13T05:50:37;12.98;;;5.70;;
38557;SDS011;24333;42.626;23.308;2023-07-13T05:53:03;9.25;;;5.20;;
38557;SDS011;24333;42.626;23.308;2023-07-13T05:55:29;12.45;;;5.78;;
38557;SDS011;24333;42.626;23.308;2023-07-13T05:57:55;12.00;;;6.10;;
38557;SDS011;24333;42.626;23.308;2023-07-13T06:00:23;14.10;;;5.20;;
38557;SDS011;24333;42.626;23.308;2023-07-13T06:02:49;14.57;;;5.43;;
38557;SDS011;24333;42.626;23.308;2023-07-13T06:05:14;8.27;;;4.65;;
38557;SDS011;24333;42.626;23.308;2023-07-13T06:07:40;9.23;;;4.57;;
38557;SDS011;24333;42.626;23.308;2023-07-13T06:10:06;14.93;;;4.57;;
38557;SDS011;24333;42.626;23.308;2023-07-13T06:12:32;8.15;;;4.55;;
38557;SDS011;24333;42.626;23.308;2023-07-13T06:14:57;7.53;;;4.13;;
38557;SDS011;24333;42.626;23.308;2023-07-13T06:17:22;8.68;;;4.65;;
38557;SDS011;24333;42.626;23.308;2023-07-13T06:19:48;11.88;;;3.88;;
38557;SDS011;24333;42.626;23.308;2023-07-13T06:22:14;10.00;;;4.00;;
38557;SDS011;24333;42.626;23.308;2023-07-13T06:24:43;6.40;;;4.10;;
38557;SDS011;24333;42.626;23.308;2023-07-13T06:27:08;9.25;;;3.85;;
38557;SDS011;24333;42.626;23.308;2023-07-13T06:29:33;10.13;;;3.83;;
38557;SDS011;24333;42.626;23.308;2023-07-13T06:31:59;4.85;;;3.40;;
38557;SDS011;24333;42.626;23.308;2023-07-13T06:34:24;6.05;;;3.33;;
38557;SDS011;24333;42.626;23.308;2023-07-13T06:36:50;8.25;;;3.20;;
38557;SDS011;24333;42.626;23.308;2023-07-13T06:39:15;7.97;;;4.30;;
38557;SDS011;24333;42.626;23.308;2023-07-13T06:41:41;19.88;;;4.53;;
38557;SDS011;24333;42.626;23.308;2023-07-13T06:44:06;5.22;;;3.67;;
38557;SDS011;24333;42.626;23.308;2023-07-13T06:46:32;8.20;;;4.22;;
38557;SDS011;24333;42.626;23.308;2023-07-13T06:48:58;9.25;;;4.35;;
38557;SDS011;24333;42.626;23.308;2023-07-13T06:51:23;8.80;;;5.13;;
38557;SDS011;24333;42.626;23.308;2023-07-13T06:53:48;9.65;;;4.55;;
38557;SDS011;24333;42.626;23.308;2023-07-13T06:56:16;8.40;;;4.45;;
38557;SDS011;24333;42.626;23.308;2023-07-13T06:58:41;11.90;;;4.82;;
38557;SDS011;24333;42.626;23.308;2023-07-13T07:01:07;11.75;;;4.65;;
38557;SDS011;24333;42.626;23.308;2023-07-13T07:03:33;13.30;;;4.95;;
38557;SDS011;24333;42.626;23.308;2023-07-13T07:06:05;13.93;;;5.55;;
38557;SDS011;24333;42.626;23.308;2023-07-13T07:08:41;10.13;;;4.70;;
38557;SDS011;24333;42.626;23.308;2023-07-13T07:11:08;8.85;;;4.78;;
38557;SDS011;24333;42.626;23.308;2023-07-13T07:13:36;11.00;;;5.22;;
38557;SDS011;24333;42.626;23.308;2023-07-13T07:16:01;12.07;;;4.80;;
38557;SDS011;24333;42.626;23.308;2023-07-13T07:18:27;11.18;;;5.45;;
38557;SDS011;24333;42.626;23.308;2023-07-13T07:20:52;10.00;;;5.13;;
38557;SDS011;24333;42.626;23.308;2023-07-13T07:23:18;18.55;;;5.47;;
38557;SDS011;24333;42.626;23.308;2023-07-13T07:25:45;11.48;;;4.30;;
38557;SDS011;24333;42.626;23.308;2023-07-13T07:28:12;10.20;;;4.60;;
38557;SDS011;24333;42.626;23.308;2023-07-13T07:30:46;8.32;;;4.78;;
38557;SDS011;24333;42.626;23.308;2023-07-13T07:33:13;8.02;;;4.82;;
38557;SDS011;24333;42.626;23.308;2023-07-13T07:35:38;8.52;;;4.95;;
38557;SDS011;24333;42.626;23.308;2023-07-13T07:38:04;9.00;;;4.53;;
38557;SDS011;24333;42.626;23.308;2023-07-13T07:40:29;10.05;;;5.57;;
38557;SDS011;24333;42.626;23.308;2023-07-13T07:42:56;11.70;;;5.47;;
38557;SDS011;24333;42.626;23.308;2023-07-13T07:45:21;11.23;;;4.53;;
38557;SDS011;24333;42.626;23.308;2023-07-13T07:47:47;9.65;;;4.55;;
38557;SDS011;24333;42.626;23.308;2023-07-13T07:50:13;12.35;;;4.70;;
38557;SDS011;24333;42.626;23.308;2023-07-13T07:52:39;8.48;;;4.65;;
38557;SDS011;24333;42.626;23.308;2023-07-13T07:55:05;9.60;;;4.13;;
38557;SDS011;24333;42.626;23.308;2023-07-13T07:57:32;13.48;;;4.70;;
38557;SDS011;24333;42.626;23.308;2023-07-13T07:59:57;6.43;;;4.20;;
38557;SDS011;24333;42.626;23.308;2023-07-13T08:02:24;5.88;;;4.22;;
38557;SDS011;24333;42.626;23.308;2023-07-13T08:04:49;13.63;;;4.85;;
38557;SDS011;24333;42.626;23.308;2023-07-13T08:07:15;9.05;;;4.40;;
38557;SDS011;24333;42.626;23.308;2023-07-13T08:09:40;9.95;;;4.72;;
38557;SDS011;24333;42.626;23.308;2023-07-13T08:12:06;8.85;;;4.78;;
38557;SDS011;24333;42.626;23.308;2023-07-13T08:14:32;10.57;;;4.70;;
38557;SDS011;24333;42.626;23.308;2023-07-13T08:16:57;10.98;;;4.63;;
38557;SDS011;24333;42.626;23.308;2023-07-13T08:19:23;9.30;;;4.72;;
38557;SDS011;24333;42.626;23.308;2023-07-13T08:21:48;11.02;;;4.15;;
38557;SDS011;24333;42.626;23.308;2023-07-13T08:24:14;8.98;;;4.43;;
38557;SDS011;24333;42.626;23.308;2023-07-13T08:26:39;8.82;;;4.15;;
38557;SDS011;24333;42.626;23.308;2023-07-13T08:29:05;8.15;;;4.18;;
38557;SDS011;24333;42.626;23.308;2023-07-13T08:31:30;13.68;;;4.45;;
38557;SDS011;24333;42.626;23.308;2023-07-13T08:33:56;5.68;;;4.35;;
38557;SDS011;24333;42.626;23.308;2023-07-13T08:36:21;6.70;;;4.28;;
38557;SDS011;24333;42.626;23.308;2023-07-13T08:38:46;8.75;;;4.25;;
38557;SDS011;24333;42.626;23.308;2023-07-13T08:41:13;7.97;;;4.13;;
38557;SDS011;24333;42.626;23.308;2023-07-13T08:43:40;8.73;;;3.95;;
38557;SDS011;24333;42.626;23.308;2023-07-13T08:48:52;5.03;;;3.53;;
38557;SDS011;24333;42.626;23.308;2023-07-13T08:54:23;6.38;;;4.03;;
38557;SDS011;24333;42.626;23.308;2023-07-13T08:56:51;9.65;;;4.47;;
38557;SDS011;24333;42.626;23.308;2023-07-13T08:59:19;6.68;;;4.05;;
38557;SDS011;24333;42.626;23.308;2023-07-13T09:04:53;7.88;;;4.45;;
38557;SDS011;24333;42.626;23.308;2023-07-13T09:10:05;11.40;;;4.68;;
38557;SDS011;24333;42.626;23.308;2023-07-13T09:17:57;8.38;;;4.35;;
38557;SDS011;24333;42.626;23.308;2023-07-13T09:20:47;5.80;;;3.53;;
38557;SDS011;24333;42.626;23.308;2023-07-13T09:23:18;5.70;;;3.50;;
38557;SDS011;24333;42.626;23.308;2023-07-13T09:25:47;7.20;;;3.75;;
38557;SDS011;24333;42.626;23.308;2023-07-13T09:33:43;8.33;;;3.70;;
38557;SDS011;24333;42.626;23.308;2023-07-13T09:36:22;5.80;;;3.58;;
38557;SDS011;24333;42.626;23.308;2023-07-13T09:44:30;8.48;;;3.90;;
38557;SDS011;24333;42.626;23.308;2023-07-13T09:46:58;11.45;;;4.00;;
38557;SDS011;24333;42.626;23.308;2023-07-13T09:49:27;5.93;;;4.25;;
38557;SDS011;24333;42.626;23.308;2023-07-13T10:06:14;7.55;;;3.97;;
38557;SDS011;24333;42.626;23.308;2023-07-13T10:08:41;7.35;;;3.95;;
38557;SDS011;24333;42.626;23.308;2023-07-13T10:11:17;8.00;;;4.30;;
38557;SDS011;24333;42.626;23.308;2023-07-13T10:13:48;8.10;;;3.90;;
38557;SDS011;24333;42.626;23.308;2023-07-13T10:16:19;9.65;;;3.53;;
38557;SDS011;24333;42.626;23.308;2023-07-13T10:18:55;9.20;;;4.25;;
38557;SDS011;24333;42.626;23.308;2023-07-13T10:21:30;10.93;;;4.18;;
38557;SDS011;24333;42.626;23.308;2023-07-13T10:26:45;9.20;;;4.13;;
38557;SDS011;24333;42.626;23.308;2023-07-13T10:29:14;7.07;;;4.28;;
38557;SDS011;24333;42.626;23.308;2023-07-13T10:31:41;7.20;;;4.07;;
38557;SDS011;24333;42.626;23.308;2023-07-13T10:34:09;14.48;;;3.47;;
38557;SDS011;24333;42.626;23.308;2023-07-13T10:36:43;7.65;;;3.97;;
38557;SDS011;24333;42.626;23.308;2023-07-13T10:39:13;5.95;;;3.40;;
38557;SDS011;24333;42.626;23.308;2023-07-13T10:41:44;6.85;;;3.75;;
38557;SDS011;24333;42.626;23.308;2023-07-13T10:44:26;8.38;;;3.80;;
38557;SDS011;24333;42.626;23.308;2023-07-13T10:46:55;5.20;;;3.67;;
38557;SDS011;24333;42.626;23.308;2023-07-13T10:49:23;6.65;;;3.50;;
38557;SDS011;24333;42.626;23.308;2023-07-13T10:51:51;11.02;;;4.03;;
38557;SDS011;24333;42.626;23.308;2023-07-13T10:54:36;7.15;;;4.38;;
38557;SDS011;24333;42.626;23.308;2023-07-13T10:59:49;6.78;;;3.90;;
38557;SDS011;24333;42.626;23.308;2023-07-13T11:02:34;8.77;;;3.50;;
38557;SDS011;24333;42.626;23.308;2023-07-13T11:05:01;6.10;;;3.50;;
38557;SDS011;24333;42.626;23.308;2023-07-13T11:08:11;7.70;;;3.40;;
38557;SDS011;24333;42.626;23.308;2023-07-13T11:10:54;5.57;;;3.45;;
38557;SDS011;24333;42.626;23.308;2023-07-13T11:13:37;7.75;;;3.47;;
38557;SDS011;24333;42.626;23.308;2023-07-13T11:18:47;5.80;;;3.40;;
38557;SDS011;24333;42.626;23.308;2023-07-13T11:21:20;7.85;;;4.18;;
38557;SDS011;24333;42.626;23.308;2023-07-13T11:23:54;8.15;;;3.60;;
38557;SDS011;24333;42.626;23.308;2023-07-13T11:29:08;6.95;;;3.83;;
38557;SDS011;24333;42.626;23.308;2023-07-13T11:31:56;6.65;;;3.38;;
38557;SDS011;24333;42.626;23.308;2023-07-13T11:34:28;5.70;;;3.33;;
38557;SDS011;24333;42.626;23.308;2023-07-13T11:36:59;8.38;;;3.22;;
38557;SDS011;24333;42.626;23.308;2023-07-13T11:41:57;6.15;;;3.70;;
38557;SDS011;24333;42.626;23.308;2023-07-13T11:44:26;6.68;;;3.92;;
38557;SDS011;24333;42.626;23.308;2023-07-13T11:46:54;6.93;;;4.03;;
38557;SDS011;24333;42.626;23.308;2023-07-13T11:49:29;7.30;;;3.63;;
38557;SDS011;24333;42.626;23.308;2023-07-13T11:51:56;6.60;;;3.55;;
38557;SDS011;24333;42.626;23.308;2023-07-13T11:54:27;6.95;;;3.63;;
38557;SDS011;24333;42.626;23.308;2023-07-13T11:56:59;7.22;;;3.58;;
38557;SDS011;24333;42.626;23.308;2023-07-13T11:59:38;8.25;;;3.30;;
38557;SDS011;24333;42.626;23.308;2023-07-13T12:02:08;6.95;;;3.65;;
38557;SDS011;24333;42.626;23.308;2023-07-13T12:04:42;5.20;;;3.38;;
38557;SDS011;24333;42.626;23.308;2023-07-13T12:07:17;8.27;;;3.38;;
38557;SDS011;24333;42.626;23.308;2023-07-13T12:09:43;12.77;;;3.70;;
38557;SDS011;24333;42.626;23.308;2023-07-13T12:12:12;7.78;;;3.70;;
38557;SDS011;24333;42.626;23.308;2023-07-13T12:14:39;6.65;;;3.80;;
38557;SDS011;24333;42.626;23.308;2023-07-13T12:17:09;6.63;;;3.75;;
38557;SDS011;24333;42.626;23.308;2023-07-13T12:19:44;10.82;;;3.35;;
38557;SDS011;24333;42.626;23.308;2023-07-13T12:22:11;8.07;;;3.58;;
38557;SDS011;24333;42.626;23.308;2023-07-13T12:24:38;6.38;;;3.88;;
38557;SDS011;24333;42.626;23.308;2023-07-13T12:27:06;9.55;;;4.10;;
38557;SDS011;24333;42.626;23.308;2023-07-13T12:29:48;7.60;;;3.70;;
38557;SDS011;24333;42.626;23.308;2023-07-13T12:32:17;6.40;;;3.45;;
38557;SDS011;24333;42.626;23.308;2023-07-13T12:34:56;5.78;;;3.38;;
38557;SDS011;24333;42.626;23.308;2023-07-13T12:37:30;7.53;;;3.17;;
38557;SDS011;24333;42.626;23.308;2023-07-13T12:40:00;9.70;;;3.88;;
38557;SDS011;24333;42.626;23.308;2023-07-13T12:42:27;18.45;;;3.60;;
38557;SDS011;24333;42.626;23.308;2023-07-13T12:44:54;5.35;;;2.80;;
38557;SDS011;24333;42.626;23.308;2023-07-13T12:47:23;7.22;;;3.50;;
38557;SDS011;24333;42.626;23.308;2023-07-13T12:49:50;7.22;;;3.70;;
38557;SDS011;24333;42.626;23.308;2023-07-13T12:52:21;6.82;;;3.05;;
38557;SDS011;24333;42.626;23.308;2023-07-13T12:54:58;7.80;;;3.13;;
38557;SDS011;24333;42.626;23.308;2023-07-13T12:57:29;9.73;;;3.53;;
38557;SDS011;24333;42.626;23.308;2023-07-13T12:59:54;5.55;;;3.10;;
38557;SDS011;24333;42.626;23.308;2023-07-13T13:02:30;9.63;;;3.38;;
38557;SDS011;24333;42.626;23.308;2023-07-13T13:04:59;7.55;;;4.40;;
38557;SDS011;24333;42.626;23.308;2023-07-13T13:07:25;6.53;;;3.75;;
38557;SDS011;24333;42.626;23.308;2023-07-13T13:09:51;6.85;;;3.65;;
38557;SDS011;24333;42.626;23.308;2023-07-13T13:12:18;5.88;;;3.67;;
38557;SDS011;24333;42.626;23.308;2023-07-13T13:14:43;5.10;;;3.35;;
38557;SDS011;24333;42.626;23.308;2023-07-13T13:19:45;5.75;;;3.42;;
38557;SDS011;24333;42.626;23.308;2023-07-13T13:22:11;7.72;;;3.58;;
38557;SDS011;24333;42.626;23.308;2023-07-13T13:24:36;7.28;;;3.45;;
38557;SDS011;24333;42.626;23.308;2023-07-13T13:27:02;6.38;;;3.00;;
38557;SDS011;24333;42.626;23.308;2023-07-13T13:29:27;8.10;;;4.10;;
38557;SDS011;24333;42.626;23.308;2023-07-13T13:31:53;7.75;;;3.35;;
38557;SDS011;24333;42.626;23.308;2023-07-13T13:34:20;5.82;;;3.42;;
38557;SDS011;24333;42.626;23.308;2023-07-13T13:36:49;10.05;;;3.63;;
38557;SDS011;24333;42.626;23.308;2023-07-13T13:41:45;7.07;;;2.97;;
38557;SDS011;24333;42.626;23.308;2023-07-13T13:44:12;4.45;;;2.85;;
38557;SDS011;24333;42.626;23.308;2023-07-13T13:46:40;6.03;;;3.40;;
38557;SDS011;24333;42.626;23.308;2023-07-13T13:51:49;8.93;;;3.38;;
38557;SDS011;24333;42.626;23.308;2023-07-13T13:54:16;4.18;;;3.15;;
38557;SDS011;24333;42.626;23.308;2023-07-13T13:56:43;5.00;;;3.33;;
38557;SDS011;24333;42.626;23.308;2023-07-13T13:59:09;11.43;;;4.38;;
38557;SDS011;24333;42.626;23.308;2023-07-13T14:01:35;8.18;;;3.60;;
38557;SDS011;24333;42.626;23.308;2023-07-13T14:04:02;7.70;;;3.55;;
38557;SDS011;24333;42.626;23.308;2023-07-13T14:06:28;8.15;;;3.08;;
38557;SDS011;24333;42.626;23.308;2023-07-13T14:08:54;6.50;;;3.08;;
38557;SDS011;24333;42.626;23.308;2023-07-13T14:11:22;10.23;;;4.28;;
38557;SDS011;24333;42.626;23.308;2023-07-13T14:13:49;5.35;;;3.10;;
38557;SDS011;24333;42.626;23.308;2023-07-13T14:16:18;5.68;;;3.53;;
38557;SDS011;24333;42.626;23.308;2023-07-13T14:18:46;11.13;;;4.15;;
38557;SDS011;24333;42.626;23.308;2023-07-13T14:21:13;8.55;;;3.08;;
38557;SDS011;24333;42.626;23.308;2023-07-13T14:23:40;5.45;;;3.08;;
38557;SDS011;24333;42.626;23.308;2023-07-13T14:26:09;8.48;;;4.10;;
38557;SDS011;24333;42.626;23.308;2023-07-13T14:28:37;5.28;;;3.50;;
38557;SDS011;24333;42.626;23.308;2023-07-13T14:31:06;13.05;;;3.75;;
38557;SDS011;24333;42.626;23.308;2023-07-13T14:33:32;14.40;;;3.25;;
38557;SDS011;24333;42.626;23.308;2023-07-13T14:35:57;5.88;;;2.95;;
38557;SDS011;24333;42.626;23.308;2023-07-13T14:38:23;8.23;;;3.75;;
38557;SDS011;24333;42.626;23.308;2023-07-13T14:40:48;9.35;;;3.05;;
38557;SDS011;24333;42.626;23.308;2023-07-13T14:43:14;11.30;;;3.25;;
38557;SDS011;24333;42.626;23.308;2023-07-13T14:45:42;10.80;;;3.42;;
38557;SDS011;24333;42.626;23.308;2023-07-13T14:48:21;5.47;;;3.42;;
38557;SDS011;24333;42.626;23.308;2023-07-13T14:50:57;7.80;;;3.20;;
38557;SDS011;24333;42.626;23.308;2023-07-13T14:53:25;7.60;;;2.78;;
38557;SDS011;24333;42.626;23.308;2023-07-13T14:55:54;7.25;;;3.80;;
38557;SDS011;24333;42.626;23.308;2023-07-13T14:58:20;8.45;;;3.75;;
38557;SDS011;24333;42.626;23.308;2023-07-13T15:00:45;5.63;;;3.13;;
38557;SDS011;24333;42.626;23.308;2023-07-13T15:03:16;7.90;;;3.17;;
38557;SDS011;24333;42.626;23.308;2023-07-13T15:05:46;4.78;;;2.60;;
38557;SDS011;24333;42.626;23.308;2023-07-13T15:08:12;10.75;;;3.53;;
38557;SDS011;24333;42.626;23.308;2023-07-13T15:10:38;7.07;;;2.92;;
38557;SDS011;24333;42.626;23.308;2023-07-13T15:13:17;6.70;;;3.08;;
38557;SDS011;24333;42.626;23.308;2023-07-13T15:15:51;6.70;;;2.88;;
38557;SDS011;24333;42.626;23.308;2023-07-13T15:18:19;5.60;;;2.88;;
38557;SDS011;24333;42.626;23.308;2023-07-13T15:20:47;8.18;;;2.67;;
38557;SDS011;24333;42.626;23.308;2023-07-13T15:23:15;8.38;;;3.45;;
38557;SDS011;24333;42.626;23.308;2023-07-13T15:25:42;5.43;;;2.83;;
38557;SDS011;24333;42.626;23.308;2023-07-13T15:28:09;8.75;;;3.40;;
38557;SDS011;24333;42.626;23.308;2023-07-13T15:30:42;10.20;;;4.00;;
38557;SDS011;24333;42.626;23.308;2023-07-13T15:33:14;15.23;;;4.18;;
38557;SDS011;24333;42.626;23.308;2023-07-13T15:35:51;11.85;;;3.95;;
38557;SDS011;24333;42.626;23.308;2023-07-13T15:38:22;7.93;;;3.55;;
38557;SDS011;24333;42.626;23.308;2023-07-13T15:40:49;5.72;;;2.65;;
38557;SDS011;24333;42.626;23.308;2023-07-13T15:43:16;6.30;;;2.70;;
38557;SDS011;24333;42.626;23.308;2023-07-13T15:45:43;5.35;;;2.50;;
38557;SDS011;24333;42.626;23.308;2023-07-13T15:48:19;6.13;;;2.85;;
38557;SDS011;24333;42.626;23.308;2023-07-13T15:53:26;15.57;;;3.15;;
38557;SDS011;24333;42.626;23.308;2023-07-13T15:55:55;8.10;;;3.40;;
38557;SDS011;24333;42.626;23.308;2023-07-13T16:03:22;9.20;;;2.38;;
38557;SDS011;24333;42.626;23.308;2023-07-13T16:05:47;11.30;;;2.63;;
38557;SDS011;24333;42.626;23.308;2023-07-13T16:08:23;13.95;;;3.67;;
38557;SDS011;24333;42.626;23.308;2023-07-13T16:10:50;8.65;;;3.40;;
38557;SDS011;24333;42.626;23.308;2023-07-13T16:13:19;10.55;;;3.38;;
38557;SDS011;24333;42.626;23.308;2023-07-13T16:15:46;7.32;;;3.75;;
38557;SDS011;24333;42.626;23.308;2023-07-13T16:18:12;8.88;;;2.95;;